Time;durP1;ratioP1;P1;durP2;ratioP2;P2;SDS_P1;SDS_P2;PMS_P1;PMS_P2;Temp;Humidity;BMP_temperature;BMP_pressure;BME280_temperature;BME280_humidity;BME280_pressure;Samples;Min_cycle;Max_cycle;Signal;HPM_P1;HPM_P2
2022/08/16 00:01:53;;;;;;;32.55;21.02;;;;;;;21.63;63.80;100507.19;5041051;28;20119;-67
2022/08/16 00:04:18;;;;;;;33.67;21.10;;;;;;;21.59;64.42;100507.34;5046465;28;20159;-66
2022/08/16 00:06:44;;;;;;;35.30;21.50;;;;;;;21.57;63.61;100507.38;5051856;28;20075;-66
2022/08/16 00:09:10;;;;;;;39.13;21.23;;;;;;;21.51;64.27;100505.75;5025144;28;20085;-66
2022/08/16 00:11:36;;;;;;;37.80;21.67;;;;;;;21.50;63.80;100513.72;5048834;28;20059;-66
2022/08/16 00:14:06;;;;;;;33.92;19.77;;;;;;;21.48;64.04;100504.97;5050333;28;20017;-66
2022/08/16 00:16:31;;;;;;;33.50;20.05;;;;;;;21.43;64.08;100501.53;5048727;28;20495;-66
2022/08/16 00:18:58;;;;;;;33.20;19.23;;;;;;;21.36;64.88;100514.97;5049751;28;20135;-66
2022/08/16 00:21:24;;;;;;;30.73;19.08;;;;;;;21.39;63.88;100507.84;5044757;28;20025;-66
2022/08/16 00:23:50;;;;;;;30.52;19.17;;;;;;;21.33;64.44;100509.75;5044834;28;20511;-66
2022/08/16 00:26:15;;;;;;;31.02;18.00;;;;;;;21.32;63.86;100502.72;5052366;28;20033;-66
2022/08/16 00:28:40;;;;;;;30.33;19.13;;;;;;;21.31;63.76;100511.56;5050770;28;20056;-66
2022/08/16 00:31:06;;;;;;;30.38;18.13;;;;;;;21.30;64.14;100506.31;5047842;28;20104;-66
2022/08/16 00:33:31;;;;;;;30.58;18.23;;;;;;;21.30;63.69;100519.56;5050486;28;20029;-66
2022/08/16 00:35:56;;;;;;;33.63;19.70;;;;;;;21.27;63.58;100520.50;5047757;28;20503;-66
2022/08/16 00:38:22;;;;;;;30.35;18.88;;;;;;;21.24;64.07;100517.94;5043526;28;20037;-66
2022/08/16 00:40:53;;;;;;;35.63;19.55;;;;;;;21.19;63.87;100518.06;5046353;28;20032;-66
2022/08/16 00:43:38;;;;;;;31.63;19.08;;;;;;;21.14;64.39;100519.94;5046649;28;20045;-66
2022/08/16 00:46:24;;;;;;;30.48;18.88;;;;;;;21.13;64.35;100520.88;5049250;28;20021;-66
2022/08/16 00:48:50;;;;;;;30.25;19.10;;;;;;;21.05;64.19;100528.13;5043205;28;20035;-66
2022/08/16 00:51:18;;;;;;;33.17;18.10;;;;;;;20.99;64.10;100523.84;5049408;28;20036;-66
2022/08/16 00:53:45;;;;;;;30.67;19.08;;;;;;;20.93;64.00;100528.41;5047548;28;20142;-67
2022/08/16 00:56:14;;;;;;;33.45;18.42;;;;;;;20.91;63.53;100525.81;5046242;28;20020;-66
2022/08/16 00:58:42;;;;;;;29.80;18.20;;;;;;;20.88;63.97;100523.25;5049238;28;20510;-66
2022/08/16 01:01:08;;;;;;;29.70;18.80;;;;;;;20.86;63.51;100524.22;5045900;28;20123;-66
2022/08/16 01:03:35;;;;;;;29.85;18.42;;;;;;;20.81;64.00;100526.94;5040979;28;20044;-66
2022/08/16 01:06:02;;;;;;;34.80;19.70;;;;;;;20.79;63.68;100526.97;5044458;28;20029;-66
2022/08/16 01:08:28;;;;;;;32.17;18.95;;;;;;;20.77;64.29;100527.91;5048550;28;20028;-66
2022/08/16 01:10:54;;;;;;;31.90;19.55;;;;;;;20.71;64.53;100522.78;5049948;28;20490;-66
2022/08/16 01:13:26;;;;;;;33.38;19.85;;;;;;;20.71;64.95;100526.31;5043496;28;20086;-66
2022/08/16 01:15:57;;;;;;;32.28;19.65;;;;;;;20.66;65.29;100529.03;5049968;28;20017;-66
2022/08/16 01:18:27;;;;;;;32.53;20.55;;;;;;;20.61;65.94;100525.63;5046174;28;20394;-66
2022/08/16 01:21:09;;;;;;;30.25;18.77;;;;;;;20.61;65.09;100525.63;5042896;28;20391;-66
2022/08/16 01:24:03;;;;;;;36.03;19.20;;;;;;;20.58;63.92;100517.75;5040646;28;20087;-66
2022/08/16 01:26:31;;;;;;;32.92;19.85;;;;;;;20.52;65.55;100519.66;5037957;28;20507;-66
2022/08/16 01:29:03;;;;;;;33.83;19.85;;;;;;;20.47;65.04;100530.34;5043855;28;20021;-66
2022/08/16 01:31:29;;;;;;;36.33;20.27;;;;;;;20.44;65.58;100522.50;5049317;28;20059;-66
2022/08/16 01:33:55;;;;;;;34.78;20.20;;;;;;;20.43;65.38;100520.75;5047930;28;20086;-66
2022/08/16 01:36:21;;;;;;;30.08;18.90;;;;;;;20.40;65.04;100534.91;5049730;28;20047;-66
2022/08/16 01:38:48;;;;;;;36.97;20.55;;;;;;;20.37;65.29;100523.53;5046761;28;20025;-66
2022/08/16 01:41:19;;;;;;;34.65;20.23;;;;;;;20.33;65.68;100518.31;5045740;28;20045;-66
2022/08/16 01:43:46;;;;;;;33.05;19.30;;;;;;;20.30;65.60;100509.56;5039660;28;20056;-66
2022/08/16 01:46:27;;;;;;;37.33;19.88;;;;;;;20.29;65.38;100519.28;5048111;28;20035;-66
2022/08/16 01:49:00;;;;;;;31.65;20.02;;;;;;;20.27;65.52;100526.34;5031585;28;20443;-66
2022/08/16 01:51:27;;;;;;;33.38;20.00;;;;;;;20.27;65.58;100528.16;5047491;28;20123;-66
2022/08/16 01:53:53;;;;;;;34.72;21.08;;;;;;;20.25;66.04;100533.47;5045805;28;20044;-66
2022/08/16 01:56:20;;;;;;;41.05;21.30;;;;;;;20.26;66.36;100523.75;5046174;28;20060;-66
2022/08/16 01:58:46;;;;;;;37.53;21.60;;;;;;;20.24;65.63;100520.28;5046809;28;20056;-66
2022/08/16 02:01:11;;;;;;;35.50;20.65;;;;;;;20.20;65.98;100530.03;5046909;28;20507;-66
2022/08/16 02:03:38;;;;;;;36.35;20.80;;;;;;;20.18;66.23;100521.28;5043307;28;20028;-66
2022/08/16 02:06:04;;;;;;;38.75;21.65;;;;;;;20.13;66.34;100523.13;5039743;28;20029;-66
2022/08/16 02:08:29;;;;;;;38.08;21.58;;;;;;;20.13;66.05;100529.31;5043414;28;20033;-66
2022/08/16 02:10:55;;;;;;;38.13;21.48;;;;;;;20.12;66.29;100524.06;5049829;28;20021;-66
2022/08/16 02:13:20;;;;;;;39.55;22.42;;;;;;;20.08;66.43;100533.81;5048923;28;20031;-66
2022/08/16 02:15:46;;;;;;;43.78;24.08;;;;;;;20.09;67.08;100532.94;5038531;28;20020;-66
2022/08/16 02:18:12;;;;;;;44.28;23.92;;;;;;;20.07;68.19;100528.56;5046673;28;20200;-66
2022/08/16 02:20:39;;;;;;;43.63;25.08;;;;;;;20.05;68.25;100525.09;5043095;28;20032;-66
2022/08/16 02:23:06;;;;;;;45.30;25.00;;;;;;;20.02;68.18;100527.81;5044849;28;20037;-66
2022/08/16 02:25:32;;;;;;;49.58;26.70;;;;;;;19.98;69.44;100535.78;5040003;28;20381;-66
2022/08/16 02:27:58;;;;;;;56.33;27.42;;;;;;;19.98;69.05;100519.03;5043367;28;20031;-66
2022/08/16 02:30:27;;;;;;;49.65;27.23;;;;;;;19.93;69.34;100527.09;5044244;28;20381;-66
2022/08/16 02:32:53;;;;;;;47.53;27.08;;;;;;;19.92;69.36;100529.75;5047645;28;20036;-66
2022/08/16 02:35:20;;;;;;;51.42;27.52;;;;;;;19.93;69.29;100532.38;5045967;28;20025;-66
2022/08/16 02:37:45;;;;;;;54.75;27.55;;;;;;;19.93;68.43;100527.09;5041663;28;20018;-66
2022/08/16 02:40:12;;;;;;;52.33;28.10;;;;;;;19.92;68.90;100530.63;5047246;28;20021;-66
2022/08/16 02:42:37;;;;;;;51.50;28.98;;;;;;;19.88;69.45;100528.94;5048262;28;20049;-66
2022/08/16 02:45:04;;;;;;;52.78;27.33;;;;;;;19.92;68.79;100522.69;5044063;28;20704;-66
2022/08/16 02:47:29;;;;;;;49.25;27.38;;;;;;;19.91;69.10;100518.28;5047939;28;20056;-66
2022/08/16 02:49:55;;;;;;;57.45;29.02;;;;;;;19.92;69.09;100521.81;5047127;28;20570;-66
2022/08/16 02:52:21;;;;;;;51.15;28.13;;;;;;;19.90;69.12;100527.16;5046991;28;20629;-66
2022/08/16 02:54:46;;;;;;;51.15;27.42;;;;;;;19.92;68.70;100525.31;5043985;28;20035;-66
2022/08/16 02:57:12;;;;;;;53.28;28.15;;;;;;;19.89;68.62;100519.25;5046425;28;20430;-62
2022/08/16 02:59:38;;;;;;;51.50;27.35;;;;;;;19.89;68.62;100520.09;5047926;28;20108;-62
2022/08/16 03:02:03;;;;;;;54.35;27.30;;;;;;;19.88;68.76;100522.78;5047435;28;20028;-62
2022/08/16 03:04:29;;;;;;;58.22;28.25;;;;;;;19.88;68.54;100512.22;5044173;28;20033;-62
2022/08/16 03:06:55;;;;;;;54.50;28.83;;;;;;;19.85;68.90;100513.13;5048558;28;20132;-62
2022/08/16 03:09:20;;;;;;;53.33;27.85;;;;;;;19.86;68.69;100514.03;5030189;28;20033;-62
2022/08/16 03:11:46;;;;;;;52.70;27.40;;;;;;;19.78;69.76;100511.47;5048739;28;20040;-62
2022/08/16 03:14:11;;;;;;;54.13;28.40;;;;;;;19.81;68.49;100516.72;5044020;28;20091;-62
2022/08/16 03:16:37;;;;;;;56.15;28.15;;;;;;;19.79;69.10;100510.63;5039079;28;20028;-62
2022/08/16 03:19:03;;;;;;;57.75;30.55;;;;;;;19.76;69.79;100511.50;5048439;28;20029;-62
2022/08/16 03:21:28;;;;;;;57.63;28.80;;;;;;;19.75;69.32;100507.13;5045054;28;20595;-62
2022/08/16 03:23:53;;;;;;;61.28;28.70;;;;;;;19.80;69.03;100509.72;5046751;28;20497;-62
2022/08/16 03:26:19;;;;;;;59.20;28.23;;;;;;;19.78;69.10;100516.75;5047120;28;20029;-66
2022/08/16 03:28:45;;;;;;;59.25;28.35;;;;;;;19.78;69.28;100508.84;5046169;28;20071;-67
2022/08/16 03:31:10;;;;;;;55.90;28.67;;;;;;;19.76;68.93;100511.50;5047407;28;20028;-66
2022/08/16 03:33:35;;;;;;;56.67;28.73;;;;;;;19.74;69.06;100509.78;5044690;28;20021;-66
2022/08/16 03:36:01;;;;;;;58.88;29.05;;;;;;;19.72;68.95;100511.59;5049300;28;20051;-66
2022/08/16 03:38:28;;;;;;;58.25;29.67;;;;;;;19.70;69.84;100518.72;5047842;28;20431;-67
2022/08/16 03:40:55;;;;;;;56.22;29.63;;;;;;;19.69;69.36;100523.09;5052422;28;20049;-66
2022/08/16 03:43:22;;;;;;;59.00;30.20;;;;;;;19.65;69.85;100518.78;5048292;28;20037;-66
2022/08/16 03:45:51;;;;;;;60.72;29.55;;;;;;;19.66;69.81;100519.66;5045373;28;20531;-67
2022/08/16 03:48:16;;;;;;;57.55;28.75;;;;;;;19.67;69.55;100521.38;5044760;28;20072;-67
2022/08/16 03:50:42;;;;;;;58.17;29.02;;;;;;;19.64;70.23;100525.00;5051287;28;20056;-67
2022/08/16 03:53:07;;;;;;;58.80;28.10;;;;;;;19.63;69.68;100532.03;5046535;28;20120;-66
2022/08/16 03:55:32;;;;;;;57.58;28.33;;;;;;;19.63;69.98;100529.38;5046465;28;20767;-67
2022/08/16 03:57:58;;;;;;;59.97;30.88;;;;;;;19.63;69.89;100533.81;5044583;28;20033;-67
2022/08/16 04:00:27;;;;;;;59.90;30.13;;;;;;;19.60;70.81;100542.66;5047884;28;20040;-67
2022/08/16 04:02:55;;;;;;;67.35;30.40;;;;;;;19.62;69.79;100543.53;5049063;28;20049;-67
2022/08/16 04:05:20;;;;;;;60.65;29.80;;;;;;;19.60;69.61;100540.00;5046647;28;20061;-66
2022/08/16 04:07:45;;;;;;;65.30;31.83;;;;;;;19.60;70.05;100552.38;5041843;28;20511;-67
2022/08/16 04:10:12;;;;;;;66.57;30.60;;;;;;;19.58;70.19;100551.50;5048854;28;20025;-67
2022/08/16 04:12:40;;;;;;;63.45;31.08;;;;;;;19.58;70.07;100554.16;5051930;28;20028;-67
2022/08/16 04:15:09;;;;;;;59.67;31.20;;;;;;;19.55;70.09;100557.75;5048061;28;20547;-66
2022/08/16 04:17:35;;;;;;;67.47;32.13;;;;;;;19.54;70.38;100558.63;5043841;28;20036;-67
2022/08/16 04:20:01;;;;;;;68.60;32.53;;;;;;;19.54;70.31;100555.13;5024760;28;20030;-67
2022/08/16 04:22:26;;;;;;;67.93;33.17;;;;;;;19.52;71.13;100552.50;5051810;28;20017;-67
2022/08/16 04:24:51;;;;;;;66.45;32.65;;;;;;;19.53;71.00;100558.66;5047607;28;20044;-67
2022/08/16 04:27:17;;;;;;;73.03;35.00;;;;;;;19.50;72.02;100562.22;5049673;28;20144;-67
2022/08/16 04:29:43;;;;;;;76.05;35.72;;;;;;;19.50;71.89;100562.22;5040315;28;20100;-67
2022/08/16 04:32:08;;;;;;;73.28;34.55;;;;;;;19.46;71.78;100563.19;5049440;28;20459;-67
2022/08/16 04:34:38;;;;;;;70.47;34.78;;;;;;;19.48;71.51;100560.50;5041931;28;20471;-67
2022/08/16 04:37:05;;;;;;;68.68;33.08;;;;;;;19.43;71.92;100547.38;5049587;28;20041;-67
2022/08/16 04:39:32;;;;;;;64.70;33.33;;;;;;;19.46;71.17;100557.91;5044043;28;20037;-67
2022/08/16 04:41:58;;;;;;;69.20;33.85;;;;;;;19.45;71.24;100553.50;5050300;28;20106;-67
2022/08/16 04:44:23;;;;;;;64.82;33.13;;;;;;;19.43;71.60;100563.25;5041854;28;20480;-67
2022/08/16 04:46:49;;;;;;;58.75;30.58;;;;;;;19.42;71.29;100556.19;5047426;28;20025;-67
2022/08/16 04:49:14;;;;;;;62.42;31.75;;;;;;;19.44;71.29;100557.06;5049601;28;20382;-67
2022/08/16 04:51:42;;;;;;;56.67;31.48;;;;;;;19.40;72.03;100564.16;5048488;28;20112;-67
2022/08/16 04:54:08;;;;;;;58.70;30.75;;;;;;;19.41;71.45;100563.25;5050274;28;20539;-67
2022/08/16 04:56:35;;;;;;;56.78;31.83;;;;;;;19.37;72.39;100561.56;5042917;28;20039;-67
2022/08/16 04:59:00;;;;;;;59.53;30.67;;;;;;;19.40;71.65;100560.66;5038791;28;20027;-67
2022/08/16 05:01:26;;;;;;;53.67;29.65;;;;;;;19.40;71.43;100563.28;5045973;28;20485;-67
2022/08/16 05:03:52;;;;;;;52.17;29.42;;;;;;;19.40;71.36;100563.28;5048649;28;20082;-68
2022/08/16 05:06:18;;;;;;;46.17;26.98;;;;;;;19.41;71.08;100567.69;5047100;28;20052;-67
2022/08/16 05:08:43;;;;;;;48.92;28.65;;;;;;;19.39;72.13;100566.81;5049672;28;20032;-67
2022/08/16 05:11:11;;;;;;;51.58;29.15;;;;;;;19.39;72.55;100572.13;5045210;28;20017;-67
2022/08/16 05:13:40;;;;;;;43.83;27.50;;;;;;;19.40;71.66;100568.59;5030223;28;20114;-67
2022/08/16 05:16:08;;;;;;;44.38;27.85;;;;;;;19.41;71.65;100570.34;5050148;28;22022;-67
2022/08/16 05:18:35;;;;;;;45.28;26.08;;;;;;;19.40;71.57;100576.50;5047108;28;20122;-67
2022/08/16 05:21:00;;;;;;;42.78;26.85;;;;;;;19.39;71.74;100574.75;5047927;28;20116;-67
2022/08/16 05:23:25;;;;;;;38.85;26.63;;;;;;;19.39;71.84;100578.28;5042557;28;20109;-67
2022/08/16 05:25:51;;;;;;;41.13;25.40;;;;;;;19.39;71.34;100587.97;5043263;28;20514;-66
2022/08/16 05:28:17;;;;;;;40.97;25.35;;;;;;;19.37;72.12;100585.34;5044828;28;20024;-67
2022/08/16 05:30:43;;;;;;;41.50;25.48;;;;;;;19.36;72.46;100588.03;5043973;28;20024;-67
2022/08/16 05:33:08;;;;;;;39.42;25.17;;;;;;;19.38;72.55;100596.78;5047719;28;20017;-67
2022/08/16 05:35:34;;;;;;;36.95;24.40;;;;;;;19.37;72.33;100588.00;5047001;28;20025;-67
2022/08/16 05:37:59;;;;;;;34.80;24.73;;;;;;;19.37;72.46;100584.50;5028383;28;20029;-67
2022/08/16 05:40:24;;;;;;;30.52;22.88;;;;;;;19.37;72.75;100589.78;5008485;28;1082378;-67
2022/08/16 05:42:50;;;;;;;30.58;23.58;;;;;;;19.38;72.48;100592.38;5044017;28;20470;-66
2022/08/16 05:45:16;;;;;;;33.00;23.75;;;;;;;19.38;72.80;100602.06;5045492;28;20543;-67
2022/08/16 05:47:41;;;;;;;33.05;23.60;;;;;;;19.39;72.63;100596.78;5042331;28;20040;-67
2022/08/16 05:50:07;;;;;;;31.30;22.90;;;;;;;19.40;72.44;100595.88;5043557;28;20025;-67
2022/08/16 05:52:33;;;;;;;28.20;22.25;;;;;;;19.39;73.55;100606.47;5047571;28;20029;-67
2022/08/16 05:54:59;;;;;;;30.48;22.77;;;;;;;19.39;73.73;100599.44;5049820;28;20032;-66
2022/08/16 05:57:24;;;;;;;30.08;22.33;;;;;;;19.40;73.59;100605.56;5045810;28;20025;-67
2022/08/16 05:59:49;;;;;;;30.48;22.73;;;;;;;19.38;74.37;100596.78;5047958;28;20025;-67
2022/08/16 06:02:16;;;;;;;29.58;21.80;;;;;;;19.39;73.62;100601.19;5047246;28;20048;-67
2022/08/16 06:04:41;;;;;;;26.52;20.88;;;;;;;19.40;72.68;100605.56;5049307;28;20025;-67
2022/08/16 06:07:07;;;;;;;26.88;21.83;;;;;;;19.42;73.21;100609.03;5049482;28;20021;-67
2022/08/16 06:09:33;;;;;;;25.85;20.35;;;;;;;19.44;73.01;100615.19;5047611;28;20029;-66
2022/08/16 06:12:00;;;;;;;25.42;21.25;;;;;;;19.40;73.63;100621.44;5049690;28;20029;-66
2022/08/16 06:14:26;;;;;;;29.15;21.27;;;;;;;19.39;73.05;100619.66;5043780;28;20096;-66
2022/08/16 06:16:52;;;;;;;26.15;19.95;;;;;;;19.40;73.20;100614.34;5046155;28;20535;-66
2022/08/16 06:19:17;;;;;;;24.70;20.05;;;;;;;19.41;72.90;100615.25;5041182;28;20120;-66
2022/08/16 06:21:43;;;;;;;25.90;19.20;;;;;;;19.41;72.46;100624.03;5032606;28;20501;-66
2022/08/16 06:24:08;;;;;;;24.45;20.52;;;;;;;19.42;73.08;100616.97;5047936;28;20048;-66
2022/08/16 06:26:33;;;;;;;25.55;19.17;;;;;;;19.44;72.63;100631.91;5046484;28;20060;-66
2022/08/16 06:28:59;;;;;;;22.25;18.42;;;;;;;19.46;72.21;100626.59;5046073;28;20029;-66
2022/08/16 06:31:24;;;;;;;22.77;19.50;;;;;;;19.50;72.76;100630.94;5046238;28;20078;-66
2022/08/16 06:33:49;;;;;;;22.27;18.73;;;;;;;19.53;72.34;100633.53;5043268;28;20139;-66
2022/08/16 06:36:15;;;;;;;26.95;20.15;;;;;;;19.55;72.61;100631.75;5034946;28;20116;-67
2022/08/16 06:38:41;;;;;;;23.85;19.70;;;;;;;19.60;72.66;100636.94;5023227;28;20078;-66
2022/08/16 06:41:08;;;;;;;20.85;18.65;;;;;;;19.63;72.39;100635.09;5045614;28;20049;-67
2022/08/16 06:43:34;;;;;;;21.65;18.92;;;;;;;19.67;72.22;100629.75;5040270;28;20037;-65
2022/08/16 06:46:02;;;;;;;23.75;19.20;;;;;;;19.72;71.92;100633.22;5037686;28;20078;-66
2022/08/16 06:48:27;;;;;;;23.60;19.65;;;;;;;19.75;71.94;100627.88;5047644;28;20082;-65
2022/08/16 06:50:52;;;;;;;22.25;19.08;;;;;;;19.80;72.31;100628.72;5040173;28;20021;-66
2022/08/16 06:53:19;;;;;;;25.38;19.63;;;;;;;19.85;71.91;100637.41;5035878;28;20025;-66
2022/08/16 06:55:45;;;;;;;21.38;18.85;;;;;;;19.92;72.26;100641.69;5040075;28;20074;-66
2022/08/16 06:58:10;;;;;;;23.83;20.13;;;;;;;19.97;71.95;100638.94;5046253;28;20025;-67
2022/08/16 07:00:37;;;;;;;22.83;19.20;;;;;;;20.02;71.58;100641.53;5041625;28;20091;-66
2022/08/16 07:03:05;;;;;;;23.23;20.15;;;;;;;20.05;71.26;100641.47;5038974;28;20715;-65
2022/08/16 07:05:31;;;;;;;22.75;19.33;;;;;;;20.11;71.34;100644.00;5038788;28;20033;-66
2022/08/16 07:07:57;;;;;;;22.20;19.70;;;;;;;20.15;70.98;100643.03;5039866;28;20090;-66
2022/08/16 07:10:23;;;;;;;23.65;19.75;;;;;;;20.21;71.77;100648.19;5038100;28;20024;-67
2022/08/16 07:12:49;;;;;;;24.13;19.52;;;;;;;20.26;71.08;100643.69;5037180;28;20111;-67
2022/08/16 07:15:16;;;;;;;23.25;19.58;;;;;;;20.31;71.29;100649.75;5040308;28;20461;-67
2022/08/16 07:17:43;;;;;;;25.30;19.25;;;;;;;20.38;71.22;100652.28;5039485;28;20037;-67
2022/08/16 07:20:09;;;;;;;22.88;20.40;;;;;;;20.44;70.97;100647.75;5046488;28;20021;-65
2022/08/16 07:22:35;;;;;;;23.25;19.85;;;;;;;20.50;70.24;100657.34;5048855;28;20475;-66
2022/08/16 07:25:01;;;;;;;21.73;18.13;;;;;;;20.54;70.90;100656.38;5045971;28;20112;-66
2022/08/16 07:27:26;;;;;;;22.35;19.10;;;;;;;20.60;70.18;100663.31;5048211;28;20036;-67
2022/08/16 07:29:52;;;;;;;27.10;21.90;;;;;;;20.68;70.00;100664.03;5044129;28;20511;-66
2022/08/16 07:32:19;;;;;;;21.48;18.77;;;;;;;20.73;70.17;100658.66;5046079;28;20029;-67
2022/08/16 07:34:45;;;;;;;22.70;19.73;;;;;;;20.78;70.32;100660.31;5046223;28;20476;-67
2022/08/16 07:37:10;;;;;;;22.25;19.48;;;;;;;20.86;70.27;100659.28;5042486;28;20031;-67
2022/08/16 07:39:37;;;;;;;24.77;18.98;;;;;;;20.90;69.76;100664.47;5046222;28;20029;-67
2022/08/16 07:42:03;;;;;;;21.02;18.80;;;;;;;20.94;69.43;100666.16;5033271;28;20060;-66
2022/08/16 07:44:28;;;;;;;21.55;19.23;;;;;;;21.00;69.56;100666.00;5045371;28;20031;-66
2022/08/16 07:46:55;;;;;;;22.80;18.77;;;;;;;21.05;69.52;100665.88;5045746;28;20033;-66
2022/08/16 07:49:20;;;;;;;20.92;18.48;;;;;;;21.14;69.28;100670.09;5043175;28;20025;-66
2022/08/16 07:51:46;;;;;;;23.48;19.55;;;;;;;21.19;68.88;100677.03;5037154;28;20021;-66
2022/08/16 07:54:11;;;;;;;21.02;18.83;;;;;;;21.23;69.28;100675.19;5037517;28;20036;-66
2022/08/16 07:56:37;;;;;;;22.63;19.45;;;;;;;21.27;68.43;100673.34;5040671;28;20032;-65
2022/08/16 07:59:03;;;;;;;21.23;18.23;;;;;;;21.34;68.98;100681.09;5039823;28;20152;-66
2022/08/16 08:01:31;;;;;;;20.40;17.13;;;;;;;21.43;68.92;100673.84;5040928;28;20032;-66
2022/08/16 08:03:57;;;;;;;20.80;18.63;;;;;;;21.47;68.23;100673.72;5040682;28;20025;-66
2022/08/16 08:06:26;;;;;;;20.92;17.55;;;;;;;21.51;67.72;100672.78;5048375;28;20024;-66
2022/08/16 08:08:51;;;;;;;18.48;16.50;;;;;;;21.56;67.44;100675.31;5044490;28;20110;-66
2022/08/16 08:11:17;;;;;;;19.50;16.85;;;;;;;21.60;66.98;100681.44;5040424;28;20049;-66
2022/08/16 08:13:42;;;;;;;19.27;15.93;;;;;;;21.66;66.56;100683.91;5047307;28;20029;-66
2022/08/16 08:16:09;;;;;;;17.58;15.27;;;;;;;21.73;66.21;100684.66;5048112;28;20511;-66
2022/08/16 08:18:35;;;;;;;20.02;16.73;;;;;;;21.82;65.60;100697.66;5044322;28;20557;-66
2022/08/16 08:21:00;;;;;;;18.13;15.55;;;;;;;21.85;65.33;100693.13;5048408;28;20017;-65
2022/08/16 08:23:27;;;;;;;16.30;14.48;;;;;;;21.90;65.13;100690.38;5049111;28;20028;-65
2022/08/16 08:25:52;;;;;;;18.35;15.90;;;;;;;21.98;64.15;100685.72;5048294;28;20082;-66
2022/08/16 08:28:18;;;;;;;16.65;14.85;;;;;;;22.10;64.44;100683.66;5052167;28;20028;-66
2022/08/16 08:30:44;;;;;;;17.10;15.35;;;;;;;22.20;64.00;100688.69;5051803;28;20028;-66
2022/08/16 08:33:11;;;;;;;16.98;14.90;;;;;;;22.27;63.06;100684.06;5047565;28;20507;-62
2022/08/16 08:35:37;;;;;;;16.45;14.23;;;;;;;22.34;62.25;100690.97;5050966;28;20138;-66
2022/08/16 08:38:06;;;;;;;15.70;14.10;;;;;;;22.46;61.75;100691.56;5051316;28;20048;-66
2022/08/16 08:40:31;;;;;;;;;;;;;;;22.55;63.11;100696.59;5046423;28;20033;-67
2022/08/16 08:42:58;;;;;;;14.77;13.20;;;;;;;22.62;61.78;100695.50;5052112;28;20260;-67
2022/08/16 08:45:24;;;;;;;16.00;13.75;;;;;;;22.71;60.88;100689.94;5051475;28;20039;-68
2022/08/16 08:47:49;;;;;;;16.10;14.43;;;;;;;22.82;61.21;100694.94;5047427;28;20025;-66
2022/08/16 08:50:16;;;;;;;17.08;13.52;;;;;;;22.88;61.34;100694.75;5051765;28;20021;-65
2022/08/16 08:52:43;;;;;;;17.02;14.77;;;;;;;22.99;60.87;100694.44;5041263;28;20143;-66
2022/08/16 08:55:10;;;;;;;18.50;15.27;;;;;;;23.08;61.05;100698.59;5041970;28;20027;-68
2022/08/16 08:57:46;;;;;;;16.55;13.77;;;;;;;23.16;60.95;100695.72;5040554;28;20187;-70
2022/08/16 09:00:14;;;;;;;15.00;13.50;;;;;;;23.23;60.01;100698.16;5042286;28;20059;-71
2022/08/16 09:02:43;;;;;;;16.30;13.45;;;;;;;23.35;59.95;100696.88;5041950;28;20075;-69
2022/08/16 09:05:09;;;;;;;14.52;12.93;;;;;;;23.46;58.40;100696.53;5040829;28;20025;-73
2022/08/16 09:07:37;;;;;;;13.90;12.35;;;;;;;23.52;59.20;100711.41;5042456;28;20033;-68
2022/08/16 09:10:04;;;;;;;16.05;12.65;;;;;;;23.65;56.79;100701.25;5047109;28;20021;-74
2022/08/16 09:12:30;;;;;;;13.80;12.27;;;;;;;23.73;56.58;100702.72;5044139;28;20039;-71
2022/08/16 09:14:55;;;;;;;14.43;12.10;;;;;;;23.90;56.59;100712.00;5051330;28;20032;-69
2022/08/16 09:17:20;;;;;;;14.32;12.40;;;;;;;23.96;55.31;100707.31;5048271;28;20080;-72
2022/08/16 09:19:46;;;;;;;13.95;12.30;;;;;;;24.02;55.81;100708.03;5051073;28;20047;-65
2022/08/16 09:22:11;;;;;;;14.30;12.10;;;;;;;24.10;55.72;100716.59;5049753;28;20094;-64
2022/08/16 09:24:37;;;;;;;13.32;11.93;;;;;;;24.13;55.20;100717.38;5048271;28;20037;-66
2022/08/16 09:27:03;;;;;;;12.43;11.13;;;;;;;24.21;55.78;100721.56;5050031;28;20453;-69
2022/08/16 09:29:28;;;;;;;12.77;11.05;;;;;;;24.27;55.77;100718.69;5051074;28;20090;-68
2022/08/16 09:31:56;;;;;;;13.50;11.30;;;;;;;24.36;55.34;100720.13;5048395;28;20017;-69
2022/08/16 09:34:23;;;;;;;12.93;10.70;;;;;;;24.43;54.16;100717.22;5029826;28;20506;-66
2022/08/16 09:36:49;;;;;;;12.43;11.13;;;;;;;24.53;54.13;100719.53;5043669;28;20639;-66
2022/08/16 09:39:14;;;;;;;11.63;10.23;;;;;;;24.61;52.74;100721.03;5042454;28;20044;-66
2022/08/16 09:41:39;;;;;;;13.38;10.70;;;;;;;24.77;51.32;100723.97;5051363;28;20049;-66
2022/08/16 09:44:06;;;;;;;14.50;9.88;;;;;;;24.80;51.61;100723.88;5050699;28;20507;-66
2022/08/16 09:46:32;;;;;;;11.05;9.40;;;;;;;24.91;51.61;100720.81;5051289;28;20036;-66
2022/08/16 09:48:58;;;;;;;13.15;9.90;;;;;;;24.99;51.92;100717.84;5042162;28;20026;-66
2022/08/16 09:51:25;;;;;;;11.13;9.90;;;;;;;25.12;51.06;100713.75;5047359;28;20110;-66
2022/08/16 09:53:54;;;;;;;10.63;9.50;;;;;;;25.18;52.48;100723.31;5050428;28;20585;-66
2022/08/16 09:56:29;;;;;;;10.65;9.50;;;;;;;25.29;50.36;100720.25;5051220;28;20530;-66
2022/08/16 09:58:56;;;;;;;11.00;9.48;;;;;;;25.40;50.09;100718.00;5050450;28;20231;-68
2022/08/16 10:01:21;;;;;;;10.40;9.30;;;;;;;25.43;49.93;100720.59;5050317;28;20055;-67
2022/08/16 10:03:46;;;;;;;10.30;9.07;;;;;;;25.57;49.40;100724.47;5046123;28;20033;-65
2022/08/16 10:06:12;;;;;;;10.93;9.30;;;;;;;25.64;47.72;100716.16;5041189;28;20052;-65
2022/08/16 10:08:37;;;;;;;10.48;8.95;;;;;;;25.75;47.89;100712.16;5039234;28;20029;-64
2022/08/16 10:13:47;;;;;;;10.02;8.98;;;;;;;25.94;46.45;100714.91;5045399;28;20211;-65
2022/08/16 10:16:12;;;;;;;9.45;8.45;;;;;;;25.99;47.06;100710.25;5041527;28;20567;-67
2022/08/16 10:18:39;;;;;;;8.95;8.07;;;;;;;26.12;46.58;100714.16;5024837;28;20028;-66
2022/08/16 10:21:05;;;;;;;9.68;8.77;;;;;;;26.18;45.74;100716.56;5025306;28;20491;-65
2022/08/16 10:23:31;;;;;;;11.98;8.32;;;;;;;26.25;44.63;100717.16;5049222;28;20039;-66
2022/08/16 10:25:56;;;;;;;9.65;7.50;;;;;;;26.31;44.65;100714.22;5043322;28;20036;-66
2022/08/16 10:28:23;;;;;;;8.48;7.45;;;;;;;26.37;45.71;100721.09;5043234;28;20056;-67
2022/08/16 10:30:48;;;;;;;8.82;8.00;;;;;;;26.47;43.55;100717.06;5042470;28;20036;-67
2022/08/16 10:33:14;;;;;;;9.07;8.18;;;;;;;26.50;44.02;100716.94;5047718;28;20025;-67
2022/08/16 10:35:41;;;;;;;9.23;8.32;;;;;;;26.54;43.79;100721.19;5041753;28;20342;-66
2022/08/16 10:38:06;;;;;;;9.20;8.23;;;;;;;26.57;43.82;100720.19;5043492;28;20026;-66
2022/08/16 10:40:32;;;;;;;10.68;8.00;;;;;;;26.59;44.45;100725.47;5044542;28;20025;-68
2022/08/16 10:43:01;;;;;;;9.38;8.48;;;;;;;26.70;43.59;100720.53;5043245;28;20112;-67
2022/08/16 10:45:28;;;;;;;10.13;8.10;;;;;;;26.82;43.63;100727.97;5038708;28;20453;-67
2022/08/16 10:47:55;;;;;;;11.15;8.30;;;;;;;26.94;44.43;100720.34;5037343;28;20017;-68
2022/08/16 10:50:21;;;;;;;9.55;7.93;;;;;;;27.06;43.07;100725.97;5050298;28;20021;-67
2022/08/16 10:52:46;;;;;;;9.73;8.73;;;;;;;27.19;43.00;100722.72;5042336;28;20036;-64
2022/08/16 10:55:12;;;;;;;10.05;9.00;;;;;;;27.32;43.11;100726.53;5042496;28;20075;-65
2022/08/16 10:57:39;;;;;;;10.25;9.00;;;;;;;27.45;42.59;100732.19;5049146;28;20025;-66
2022/08/16 11:00:11;;;;;;;9.65;8.75;;;;;;;27.53;42.65;100729.13;5049147;28;20043;-66
2022/08/16 11:02:37;;;;;;;10.38;8.30;;;;;;;27.56;42.23;100726.31;5048105;28;20041;-67
2022/08/16 11:05:05;;;;;;;9.52;8.55;;;;;;;27.72;43.44;100721.03;5050116;28;20346;-67
2022/08/16 11:07:31;;;;;;;9.47;8.20;;;;;;;27.81;41.29;100733.09;5047992;28;20060;-67
2022/08/16 11:09:57;;;;;;;8.88;7.90;;;;;;;27.89;41.70;100737.13;5048837;28;20028;-67
2022/08/16 11:12:23;;;;;;;9.07;8.00;;;;;;;27.93;39.75;100737.84;5048210;28;20042;-67